Marina, Croatia
Current Conditions -  °F | °C
As of 4:30 PM on Friday 24 Oct 2014 (Local Time) from LDSP Reporting Station
Clear Clear  
Wind Chill: 15°   Ceiling: Unl
Heat Index: 15°   Visibility: 6mi
Dew Point:   Wind: 17mph
Humidity: 45%   Direction: 20°NNE
Pressure: 29.85"   Gusts: 29mph
Location:  43.51°N, 16.1°E
Report Text: LDSP 241530Z 02015G25KT 350V070 CAVOK 15/03 Q1011 NOSIG
Loading
Personal Weather Stations






























Interactive Weather Map
Tropical Storm Tracking
New forecast layout! Learn more

10-Day Weather Forecast

Advertisements
Track Severe Weather on mobile